sensor_id;sensor_type;location;lat;lon;timestamp;P1;durP1;ratioP1;P2;durP2;ratioP2
68866;SDS011;56451;44.804;20.476;2022-07-29T00:02:14;10.70;;;9.07;;
68866;SDS011;56451;44.804;20.476;2022-07-29T00:04:40;11.35;;;10.13;;
68866;SDS011;56451;44.804;20.476;2022-07-29T00:07:06;12.83;;;9.83;;
68866;SDS011;56451;44.804;20.476;2022-07-29T00:09:32;16.33;;;10.35;;
68866;SDS011;56451;44.804;20.476;2022-07-29T00:11:58;17.53;;;10.17;;
68866;SDS011;56451;44.804;20.476;2022-07-29T00:14:25;12.07;;;9.53;;
68866;SDS011;56451;44.804;20.476;2022-07-29T00:16:52;12.15;;;9.82;;
68866;SDS011;56451;44.804;20.476;2022-07-29T00:19:18;14.20;;;10.50;;
68866;SDS011;56451;44.804;20.476;2022-07-29T00:21:44;15.50;;;10.07;;
68866;SDS011;56451;44.804;20.476;2022-07-29T00:24:09;14.45;;;9.93;;
68866;SDS011;56451;44.804;20.476;2022-07-29T00:26:35;13.02;;;10.13;;
68866;SDS011;56451;44.804;20.476;2022-07-29T00:29:02;18.23;;;12.00;;
68866;SDS011;56451;44.804;20.476;2022-07-29T00:31:28;13.25;;;10.32;;
68866;SDS011;56451;44.804;20.476;2022-07-29T00:33:54;12.43;;;10.33;;
68866;SDS011;56451;44.804;20.476;2022-07-29T00:36:21;16.73;;;10.80;;
68866;SDS011;56451;44.804;20.476;2022-07-29T00:38:48;12.55;;;9.55;;
68866;SDS011;56451;44.804;20.476;2022-07-29T00:41:14;14.93;;;9.70;;
68866;SDS011;56451;44.804;20.476;2022-07-29T00:43:41;12.48;;;9.70;;
68866;SDS011;56451;44.804;20.476;2022-07-29T00:46:07;12.88;;;10.02;;
68866;SDS011;56451;44.804;20.476;2022-07-29T00:48:33;16.17;;;10.03;;
68866;SDS011;56451;44.804;20.476;2022-07-29T00:50:59;13.77;;;8.80;;
68866;SDS011;56451;44.804;20.476;2022-07-29T00:53:27;12.38;;;9.05;;
68866;SDS011;56451;44.804;20.476;2022-07-29T00:55:56;14.40;;;10.10;;
68866;SDS011;56451;44.804;20.476;2022-07-29T00:58:22;13.85;;;9.40;;
68866;SDS011;56451;44.804;20.476;2022-07-29T01:00:49;10.40;;;9.20;;
68866;SDS011;56451;44.804;20.476;2022-07-29T01:03:15;11.98;;;9.60;;
68866;SDS011;56451;44.804;20.476;2022-07-29T01:05:42;14.10;;;9.43;;
68866;SDS011;56451;44.804;20.476;2022-07-29T01:08:10;12.13;;;9.70;;
68866;SDS011;56451;44.804;20.476;2022-07-29T01:10:40;14.18;;;9.68;;
68866;SDS011;56451;44.804;20.476;2022-07-29T01:13:07;14.10;;;9.73;;
68866;SDS011;56451;44.804;20.476;2022-07-29T01:15:36;13.73;;;9.70;;
68866;SDS011;56451;44.804;20.476;2022-07-29T01:18:24;10.68;;;8.93;;
68866;SDS011;56451;44.804;20.476;2022-07-29T01:23:52;12.02;;;9.25;;
68866;SDS011;56451;44.804;20.476;2022-07-29T01:26:57;13.88;;;10.25;;
68866;SDS011;56451;44.804;20.476;2022-07-29T01:31:59;13.82;;;9.88;;
68866;SDS011;56451;44.804;20.476;2022-07-29T01:34:31;12.93;;;9.93;;
68866;SDS011;56451;44.804;20.476;2022-07-29T01:37:32;13.65;;;10.07;;
68866;SDS011;56451;44.804;20.476;2022-07-29T01:40:32;12.98;;;9.50;;
68866;SDS011;56451;44.804;20.476;2022-07-29T01:43:11;12.05;;;9.77;;
68866;SDS011;56451;44.804;20.476;2022-07-29T01:45:41;12.98;;;10.15;;
68866;SDS011;56451;44.804;20.476;2022-07-29T01:50:40;15.50;;;10.18;;
68866;SDS011;56451;44.804;20.476;2022-07-29T01:53:15;13.25;;;10.35;;
68866;SDS011;56451;44.804;20.476;2022-07-29T01:55:46;10.98;;;8.60;;
68866;SDS011;56451;44.804;20.476;2022-07-29T01:58:13;16.17;;;9.10;;
68866;SDS011;56451;44.804;20.476;2022-07-29T02:00:41;10.68;;;9.57;;
68866;SDS011;56451;44.804;20.476;2022-07-29T02:03:09;9.60;;;8.55;;
68866;SDS011;56451;44.804;20.476;2022-07-29T02:05:38;10.05;;;8.63;;
68866;SDS011;56451;44.804;20.476;2022-07-29T02:08:05;12.75;;;8.75;;
68866;SDS011;56451;44.804;20.476;2022-07-29T02:10:33;10.17;;;9.07;;
68866;SDS011;56451;44.804;20.476;2022-07-29T02:13:02;10.93;;;8.50;;
68866;SDS011;56451;44.804;20.476;2022-07-29T02:15:29;9.98;;;8.27;;
68866;SDS011;56451;44.804;20.476;2022-07-29T02:18:02;11.10;;;8.88;;
68866;SDS011;56451;44.804;20.476;2022-07-29T02:20:33;10.10;;;8.60;;
68866;SDS011;56451;44.804;20.476;2022-07-29T02:23:00;10.10;;;8.50;;
68866;SDS011;56451;44.804;20.476;2022-07-29T02:25:27;10.40;;;9.13;;
68866;SDS011;56451;44.804;20.476;2022-07-29T02:27:54;9.70;;;8.50;;
68866;SDS011;56451;44.804;20.476;2022-07-29T02:30:22;11.60;;;8.65;;
68866;SDS011;56451;44.804;20.476;2022-07-29T02:32:49;11.10;;;8.40;;
68866;SDS011;56451;44.804;20.476;2022-07-29T02:35:17;11.00;;;8.87;;
68866;SDS011;56451;44.804;20.476;2022-07-29T02:37:44;10.70;;;8.65;;
68866;SDS011;56451;44.804;20.476;2022-07-29T02:40:33;9.40;;;7.70;;
68866;SDS011;56451;44.804;20.476;2022-07-29T02:43:01;9.32;;;8.07;;
68866;SDS011;56451;44.804;20.476;2022-07-29T02:45:29;10.23;;;7.68;;
68866;SDS011;56451;44.804;20.476;2022-07-29T02:47:55;9.03;;;7.47;;
68866;SDS011;56451;44.804;20.476;2022-07-29T02:50:29;12.00;;;8.18;;
68866;SDS011;56451;44.804;20.476;2022-07-29T02:55:53;8.60;;;7.05;;
68866;SDS011;56451;44.804;20.476;2022-07-29T02:58:40;9.45;;;6.50;;
68866;SDS011;56451;44.804;20.476;2022-07-29T03:01:14;9.23;;;7.63;;
68866;SDS011;56451;44.804;20.476;2022-07-29T03:03:42;8.20;;;7.20;;
68866;SDS011;56451;44.804;20.476;2022-07-29T03:06:11;8.88;;;6.85;;
68866;SDS011;56451;44.804;20.476;2022-07-29T03:08:38;7.78;;;6.97;;
68866;SDS011;56451;44.804;20.476;2022-07-29T03:11:05;8.43;;;6.85;;
68866;SDS011;56451;44.804;20.476;2022-07-29T03:13:33;7.57;;;6.70;;
68866;SDS011;56451;44.804;20.476;2022-07-29T03:16:00;7.78;;;6.45;;
68866;SDS011;56451;44.804;20.476;2022-07-29T03:18:26;9.52;;;6.43;;
68866;SDS011;56451;44.804;20.476;2022-07-29T03:20:52;8.60;;;6.85;;
68866;SDS011;56451;44.804;20.476;2022-07-29T03:23:21;7.77;;;6.47;;
68866;SDS011;56451;44.804;20.476;2022-07-29T03:25:49;9.32;;;6.50;;
68866;SDS011;56451;44.804;20.476;2022-07-29T03:28:15;8.43;;;6.22;;
68866;SDS011;56451;44.804;20.476;2022-07-29T03:30:41;7.53;;;6.10;;
68866;SDS011;56451;44.804;20.476;2022-07-29T03:33:07;7.20;;;5.83;;
68866;SDS011;56451;44.804;20.476;2022-07-29T03:35:33;8.85;;;6.55;;
68866;SDS011;56451;44.804;20.476;2022-07-29T03:37:59;10.67;;;6.80;;
68866;SDS011;56451;44.804;20.476;2022-07-29T03:43:02;7.65;;;6.25;;
68866;SDS011;56451;44.804;20.476;2022-07-29T03:45:30;7.53;;;6.30;;
68866;SDS011;56451;44.804;20.476;2022-07-29T03:47:59;8.90;;;7.05;;
68866;SDS011;56451;44.804;20.476;2022-07-29T03:50:28;7.37;;;6.67;;
68866;SDS011;56451;44.804;20.476;2022-07-29T03:52:55;9.50;;;7.05;;
68866;SDS011;56451;44.804;20.476;2022-07-29T03:55:22;12.38;;;6.43;;
68866;SDS011;56451;44.804;20.476;2022-07-29T03:57:48;9.88;;;6.57;;
68866;SDS011;56451;44.804;20.476;2022-07-29T04:00:15;8.30;;;6.20;;
68866;SDS011;56451;44.804;20.476;2022-07-29T04:02:42;8.70;;;6.70;;
68866;SDS011;56451;44.804;20.476;2022-07-29T04:05:13;7.55;;;6.32;;
68866;SDS011;56451;44.804;20.476;2022-07-29T04:07:40;8.63;;;6.30;;
68866;SDS011;56451;44.804;20.476;2022-07-29T04:10:09;7.90;;;6.40;;
68866;SDS011;56451;44.804;20.476;2022-07-29T04:12:35;9.13;;;6.82;;
68866;SDS011;56451;44.804;20.476;2022-07-29T04:15:04;8.97;;;6.30;;
68866;SDS011;56451;44.804;20.476;2022-07-29T04:17:30;10.18;;;7.10;;
68866;SDS011;56451;44.804;20.476;2022-07-29T04:19:56;8.37;;;6.77;;
68866;SDS011;56451;44.804;20.476;2022-07-29T04:22:22;10.77;;;6.93;;
68866;SDS011;56451;44.804;20.476;2022-07-29T04:24:48;8.32;;;6.45;;
68866;SDS011;56451;44.804;20.476;2022-07-29T04:27:13;11.60;;;7.10;;
68866;SDS011;56451;44.804;20.476;2022-07-29T04:29:39;9.95;;;7.68;;
68866;SDS011;56451;44.804;20.476;2022-07-29T04:32:05;9.60;;;6.82;;
68866;SDS011;56451;44.804;20.476;2022-07-29T04:34:31;8.50;;;7.43;;
68866;SDS011;56451;44.804;20.476;2022-07-29T04:36:57;10.10;;;7.07;;
68866;SDS011;56451;44.804;20.476;2022-07-29T04:39:23;8.10;;;7.30;;
68866;SDS011;56451;44.804;20.476;2022-07-29T04:41:49;9.73;;;7.33;;
68866;SDS011;56451;44.804;20.476;2022-07-29T04:44:15;7.88;;;6.45;;
68866;SDS011;56451;44.804;20.476;2022-07-29T04:46:41;8.85;;;7.18;;
68866;SDS011;56451;44.804;20.476;2022-07-29T04:49:07;8.98;;;6.45;;
68866;SDS011;56451;44.804;20.476;2022-07-29T04:51:33;8.47;;;6.80;;
68866;SDS011;56451;44.804;20.476;2022-07-29T04:54:00;12.23;;;6.90;;
68866;SDS011;56451;44.804;20.476;2022-07-29T04:56:26;8.52;;;7.00;;
68866;SDS011;56451;44.804;20.476;2022-07-29T04:58:52;7.35;;;6.60;;
68866;SDS011;56451;44.804;20.476;2022-07-29T05:01:18;7.15;;;6.30;;
68866;SDS011;56451;44.804;20.476;2022-07-29T05:03:45;9.10;;;6.23;;
68866;SDS011;56451;44.804;20.476;2022-07-29T05:06:11;7.45;;;6.18;;
68866;SDS011;56451;44.804;20.476;2022-07-29T05:08:37;12.25;;;7.22;;
68866;SDS011;56451;44.804;20.476;2022-07-29T05:11:03;7.95;;;6.57;;
68866;SDS011;56451;44.804;20.476;2022-07-29T05:13:29;9.23;;;7.17;;
68866;SDS011;56451;44.804;20.476;2022-07-29T05:15:55;8.63;;;6.18;;
68866;SDS011;56451;44.804;20.476;2022-07-29T05:18:24;8.32;;;6.25;;
68866;SDS011;56451;44.804;20.476;2022-07-29T05:20:50;9.68;;;6.60;;
68866;SDS011;56451;44.804;20.476;2022-07-29T05:23:16;7.65;;;6.63;;
68866;SDS011;56451;44.804;20.476;2022-07-29T05:25:42;7.97;;;5.70;;
68866;SDS011;56451;44.804;20.476;2022-07-29T05:28:08;9.77;;;5.90;;
68866;SDS011;56451;44.804;20.476;2022-07-29T05:30:34;7.05;;;6.35;;
68866;SDS011;56451;44.804;20.476;2022-07-29T05:33:00;6.80;;;5.93;;
68866;SDS011;56451;44.804;20.476;2022-07-29T05:35:26;8.90;;;6.63;;
68866;SDS011;56451;44.804;20.476;2022-07-29T05:37:51;7.07;;;6.30;;
68866;SDS011;56451;44.804;20.476;2022-07-29T05:40:17;8.88;;;6.45;;
68866;SDS011;56451;44.804;20.476;2022-07-29T05:42:43;7.33;;;5.80;;
68866;SDS011;56451;44.804;20.476;2022-07-29T05:45:09;8.55;;;5.93;;
68866;SDS011;56451;44.804;20.476;2022-07-29T05:47:35;10.32;;;6.10;;
68866;SDS011;56451;44.804;20.476;2022-07-29T05:50:01;7.80;;;6.37;;
68866;SDS011;56451;44.804;20.476;2022-07-29T05:52:27;7.90;;;6.82;;
68866;SDS011;56451;44.804;20.476;2022-07-29T05:54:53;10.07;;;5.75;;
68866;SDS011;56451;44.804;20.476;2022-07-29T05:57:21;9.43;;;6.13;;
68866;SDS011;56451;44.804;20.476;2022-07-29T05:59:49;6.47;;;5.78;;
68866;SDS011;56451;44.804;20.476;2022-07-29T06:02:15;6.90;;;6.20;;
68866;SDS011;56451;44.804;20.476;2022-07-29T06:04:41;6.85;;;6.15;;
68866;SDS011;56451;44.804;20.476;2022-07-29T06:07:07;8.37;;;5.93;;
68866;SDS011;56451;44.804;20.476;2022-07-29T06:09:34;6.38;;;5.78;;
68866;SDS011;56451;44.804;20.476;2022-07-29T06:12:00;8.13;;;5.53;;
68866;SDS011;56451;44.804;20.476;2022-07-29T06:14:26;10.10;;;6.28;;
68866;SDS011;56451;44.804;20.476;2022-07-29T06:16:53;8.57;;;6.05;;
68866;SDS011;56451;44.804;20.476;2022-07-29T06:19:19;9.13;;;6.50;;
68866;SDS011;56451;44.804;20.476;2022-07-29T06:21:46;7.00;;;6.20;;
68866;SDS011;56451;44.804;20.476;2022-07-29T06:24:13;6.82;;;5.95;;
68866;SDS011;56451;44.804;20.476;2022-07-29T06:26:40;7.35;;;5.95;;
68866;SDS011;56451;44.804;20.476;2022-07-29T06:29:06;8.45;;;6.55;;
68866;SDS011;56451;44.804;20.476;2022-07-29T06:31:33;10.10;;;6.23;;
68866;SDS011;56451;44.804;20.476;2022-07-29T06:33:59;8.82;;;5.63;;
68866;SDS011;56451;44.804;20.476;2022-07-29T06:36:25;10.65;;;6.25;;
68866;SDS011;56451;44.804;20.476;2022-07-29T06:38:51;24.70;;;8.47;;
68866;SDS011;56451;44.804;20.476;2022-07-29T06:41:16;8.83;;;6.83;;
68866;SDS011;56451;44.804;20.476;2022-07-29T06:43:43;8.55;;;7.13;;
68866;SDS011;56451;44.804;20.476;2022-07-29T06:46:12;9.60;;;5.90;;
68866;SDS011;56451;44.804;20.476;2022-07-29T06:48:41;6.95;;;6.25;;
68866;SDS011;56451;44.804;20.476;2022-07-29T06:51:07;8.57;;;6.20;;
68866;SDS011;56451;44.804;20.476;2022-07-29T06:53:34;7.50;;;5.88;;
68866;SDS011;56451;44.804;20.476;2022-07-29T06:56:04;10.25;;;6.68;;
68866;SDS011;56451;44.804;20.476;2022-07-29T06:58:30;8.50;;;6.50;;
68866;SDS011;56451;44.804;20.476;2022-07-29T07:00:57;9.18;;;6.72;;
68866;SDS011;56451;44.804;20.476;2022-07-29T07:03:24;6.70;;;6.00;;
68866;SDS011;56451;44.804;20.476;2022-07-29T07:05:53;7.70;;;5.60;;
68866;SDS011;56451;44.804;20.476;2022-07-29T07:08:20;7.97;;;5.43;;
68866;SDS011;56451;44.804;20.476;2022-07-29T07:10:47;6.30;;;5.70;;
68866;SDS011;56451;44.804;20.476;2022-07-29T07:13:13;10.93;;;6.05;;
68866;SDS011;56451;44.804;20.476;2022-07-29T07:15:40;6.73;;;5.53;;
68866;SDS011;56451;44.804;20.476;2022-07-29T07:18:06;7.28;;;6.32;;
68866;SDS011;56451;44.804;20.476;2022-07-29T07:20:33;8.77;;;6.00;;
68866;SDS011;56451;44.804;20.476;2022-07-29T07:22:59;6.50;;;5.68;;
68866;SDS011;56451;44.804;20.476;2022-07-29T07:25:25;6.67;;;5.73;;
68866;SDS011;56451;44.804;20.476;2022-07-29T07:27:51;6.43;;;5.35;;
68866;SDS011;56451;44.804;20.476;2022-07-29T07:30:17;8.18;;;6.28;;
68866;SDS011;56451;44.804;20.476;2022-07-29T07:32:43;7.85;;;6.22;;
68866;SDS011;56451;44.804;20.476;2022-07-29T07:35:09;8.50;;;6.57;;
68866;SDS011;56451;44.804;20.476;2022-07-29T07:37:36;6.90;;;5.85;;
68866;SDS011;56451;44.804;20.476;2022-07-29T07:40:03;7.03;;;6.32;;
68866;SDS011;56451;44.804;20.476;2022-07-29T07:42:30;9.65;;;6.55;;
68866;SDS011;56451;44.804;20.476;2022-07-29T07:44:56;8.97;;;6.00;;
68866;SDS011;56451;44.804;20.476;2022-07-29T07:47:21;8.48;;;6.45;;
68866;SDS011;56451;44.804;20.476;2022-07-29T07:49:49;6.93;;;5.85;;
68866;SDS011;56451;44.804;20.476;2022-07-29T07:52:15;6.85;;;6.15;;
68866;SDS011;56451;44.804;20.476;2022-07-29T07:54:42;8.60;;;6.30;;
68866;SDS011;56451;44.804;20.476;2022-07-29T07:57:10;8.30;;;6.18;;
68866;SDS011;56451;44.804;20.476;2022-07-29T07:59:36;8.65;;;6.07;;
68866;SDS011;56451;44.804;20.476;2022-07-29T08:02:03;7.63;;;6.35;;
68866;SDS011;56451;44.804;20.476;2022-07-29T08:04:28;8.07;;;6.00;;
68866;SDS011;56451;44.804;20.476;2022-07-29T08:06:55;8.60;;;6.90;;
68866;SDS011;56451;44.804;20.476;2022-07-29T08:09:22;7.43;;;6.30;;
68866;SDS011;56451;44.804;20.476;2022-07-29T08:11:48;7.88;;;6.88;;
68866;SDS011;56451;44.804;20.476;2022-07-29T08:14:15;8.20;;;6.75;;
68866;SDS011;56451;44.804;20.476;2022-07-29T08:16:41;7.37;;;6.23;;
68866;SDS011;56451;44.804;20.476;2022-07-29T08:19:07;7.43;;;6.63;;
68866;SDS011;56451;44.804;20.476;2022-07-29T08:21:33;8.40;;;6.82;;
68866;SDS011;56451;44.804;20.476;2022-07-29T08:23:59;7.47;;;6.63;;
68866;SDS011;56451;44.804;20.476;2022-07-29T08:26:43;6.78;;;6.07;;
68866;SDS011;56451;44.804;20.476;2022-07-29T08:29:10;7.88;;;6.70;;
68866;SDS011;56451;44.804;20.476;2022-07-29T08:31:36;7.85;;;6.55;;
68866;SDS011;56451;44.804;20.476;2022-07-29T08:34:03;12.35;;;7.18;;
68866;SDS011;56451;44.804;20.476;2022-07-29T08:36:30;8.47;;;6.80;;
68866;SDS011;56451;44.804;20.476;2022-07-29T08:38:57;10.55;;;6.93;;
68866;SDS011;56451;44.804;20.476;2022-07-29T08:41:23;10.90;;;7.65;;
68866;SDS011;56451;44.804;20.476;2022-07-29T08:43:49;7.95;;;6.95;;
68866;SDS011;56451;44.804;20.476;2022-07-29T08:46:16;9.57;;;7.05;;
68866;SDS011;56451;44.804;20.476;2022-07-29T08:48:42;9.00;;;7.33;;
68866;SDS011;56451;44.804;20.476;2022-07-29T08:51:08;12.05;;;7.50;;
68866;SDS011;56451;44.804;20.476;2022-07-29T08:53:40;8.68;;;7.15;;
68866;SDS011;56451;44.804;20.476;2022-07-29T08:56:07;8.18;;;7.18;;
68866;SDS011;56451;44.804;20.476;2022-07-29T08:58:37;8.40;;;7.00;;
68866;SDS011;56451;44.804;20.476;2022-07-29T09:01:04;11.90;;;7.17;;
68866;SDS011;56451;44.804;20.476;2022-07-29T09:03:30;7.85;;;6.78;;
68866;SDS011;56451;44.804;20.476;2022-07-29T09:05:58;9.10;;;7.13;;
68866;SDS011;56451;44.804;20.476;2022-07-29T09:08:24;11.10;;;6.90;;
68866;SDS011;56451;44.804;20.476;2022-07-29T09:10:50;10.70;;;7.28;;
68866;SDS011;56451;44.804;20.476;2022-07-29T09:13:21;13.57;;;7.87;;
68866;SDS011;56451;44.804;20.476;2022-07-29T09:15:47;7.53;;;6.70;;
68866;SDS011;56451;44.804;20.476;2022-07-29T09:21:13;8.85;;;7.45;;
68866;SDS011;56451;44.804;20.476;2022-07-29T09:24:02;9.77;;;6.97;;
68866;SDS011;56451;44.804;20.476;2022-07-29T09:26:31;8.37;;;7.33;;
68866;SDS011;56451;44.804;20.476;2022-07-29T09:28:58;10.35;;;6.90;;
68866;SDS011;56451;44.804;20.476;2022-07-29T09:31:34;8.52;;;7.25;;
68866;SDS011;56451;44.804;20.476;2022-07-29T09:34:02;7.25;;;6.40;;
68866;SDS011;56451;44.804;20.476;2022-07-29T09:36:28;8.30;;;7.50;;
68866;SDS011;56451;44.804;20.476;2022-07-29T09:38:58;8.57;;;7.67;;
68866;SDS011;56451;44.804;20.476;2022-07-29T09:41:26;9.02;;;8.13;;
68866;SDS011;56451;44.804;20.476;2022-07-29T09:43:56;14.68;;;9.35;;
68866;SDS011;56451;44.804;20.476;2022-07-29T09:46:23;11.73;;;8.27;;
68866;SDS011;56451;44.804;20.476;2022-07-29T09:49:09;18.35;;;9.90;;
68866;SDS011;56451;44.804;20.476;2022-07-29T09:51:37;14.40;;;9.33;;
68866;SDS011;56451;44.804;20.476;2022-07-29T09:56:51;12.57;;;8.40;;
68866;SDS011;56451;44.804;20.476;2022-07-29T09:59:18;9.30;;;8.38;;
68866;SDS011;56451;44.804;20.476;2022-07-29T10:01:48;10.93;;;7.72;;
68866;SDS011;56451;44.804;20.476;2022-07-29T10:04:15;11.97;;;7.97;;
68866;SDS011;56451;44.804;20.476;2022-07-29T10:07:02;8.70;;;7.90;;
68866;SDS011;56451;44.804;20.476;2022-07-29T10:09:30;9.00;;;8.10;;
68866;SDS011;56451;44.804;20.476;2022-07-29T10:12:07;10.93;;;8.25;;
68866;SDS011;56451;44.804;20.476;2022-07-29T10:14:34;10.05;;;8.68;;
68866;SDS011;56451;44.804;20.476;2022-07-29T10:17:01;11.57;;;8.07;;
68866;SDS011;56451;44.804;20.476;2022-07-29T10:19:29;10.38;;;7.93;;
68866;SDS011;56451;44.804;20.476;2022-07-29T10:21:57;9.10;;;7.60;;
68866;SDS011;56451;44.804;20.476;2022-07-29T10:24:26;9.23;;;8.00;;
68866;SDS011;56451;44.804;20.476;2022-07-29T10:26:58;9.13;;;8.15;;
68866;SDS011;56451;44.804;20.476;2022-07-29T10:29:26;10.67;;;8.33;;
68866;SDS011;56451;44.804;20.476;2022-07-29T10:37:10;9.73;;;8.77;;
68866;SDS011;56451;44.804;20.476;2022-07-29T10:42:49;11.80;;;8.30;;
68866;SDS011;56451;44.804;20.476;2022-07-29T10:45:17;8.52;;;7.63;;
68866;SDS011;56451;44.804;20.476;2022-07-29T10:47:43;10.43;;;8.73;;
68866;SDS011;56451;44.804;20.476;2022-07-29T10:50:10;9.13;;;7.63;;
68866;SDS011;56451;44.804;20.476;2022-07-29T10:52:51;9.15;;;8.23;;
68866;SDS011;56451;44.804;20.476;2022-07-29T10:55:35;10.52;;;9.02;;
68866;SDS011;56451;44.804;20.476;2022-07-29T10:58:15;9.30;;;8.50;;
68866;SDS011;56451;44.804;20.476;2022-07-29T11:00:42;9.23;;;8.35;;
68866;SDS011;56451;44.804;20.476;2022-07-29T11:03:09;10.03;;;8.07;;
68866;SDS011;56451;44.804;20.476;2022-07-29T11:08:20;8.65;;;7.75;;
68866;SDS011;56451;44.804;20.476;2022-07-29T11:10:49;12.80;;;9.00;;
68866;SDS011;56451;44.804;20.476;2022-07-29T11:16:16;9.95;;;8.95;;
68866;SDS011;56451;44.804;20.476;2022-07-29T11:21:41;9.70;;;8.70;;
68866;SDS011;56451;44.804;20.476;2022-07-29T11:24:21;10.40;;;9.20;;
68866;SDS011;56451;44.804;20.476;2022-07-29T11:27:08;10.13;;;9.07;;
68866;SDS011;56451;44.804;20.476;2022-07-29T11:29:37;9.38;;;8.57;;
68866;SDS011;56451;44.804;20.476;2022-07-29T11:32:10;11.65;;;9.02;;
68866;SDS011;56451;44.804;20.476;2022-07-29T11:34:37;12.40;;;9.82;;
68866;SDS011;56451;44.804;20.476;2022-07-29T11:39:38;10.57;;;9.20;;
68866;SDS011;56451;44.804;20.476;2022-07-29T11:47:48;10.43;;;9.38;;
68866;SDS011;56451;44.804;20.476;2022-07-29T11:50:17;10.18;;;9.13;;
68866;SDS011;56451;44.804;20.476;2022-07-29T11:52:52;10.17;;;9.27;;
68866;SDS011;56451;44.804;20.476;2022-07-29T11:55:19;9.02;;;8.20;;
68866;SDS011;56451;44.804;20.476;2022-07-29T11:57:49;10.65;;;9.65;;
68866;SDS011;56451;44.804;20.476;2022-07-29T12:02:58;11.95;;;8.98;;
68866;SDS011;56451;44.804;20.476;2022-07-29T12:08:09;11.52;;;9.77;;
68866;SDS011;56451;44.804;20.476;2022-07-29T12:10:35;12.20;;;9.32;;
68866;SDS011;56451;44.804;20.476;2022-07-29T12:13:01;10.10;;;9.20;;
68866;SDS011;56451;44.804;20.476;2022-07-29T12:15:27;10.43;;;9.43;;
68866;SDS011;56451;44.804;20.476;2022-07-29T12:17:52;10.05;;;9.15;;
68866;SDS011;56451;44.804;20.476;2022-07-29T12:20:29;10.40;;;9.43;;
68866;SDS011;56451;44.804;20.476;2022-07-29T12:22:55;11.07;;;9.88;;
68866;SDS011;56451;44.804;20.476;2022-07-29T12:25:22;10.60;;;9.50;;
68866;SDS011;56451;44.804;20.476;2022-07-29T12:28:01;11.45;;;9.30;;
68866;SDS011;56451;44.804;20.476;2022-07-29T12:31:01;11.68;;;10.20;;
68866;SDS011;56451;44.804;20.476;2022-07-29T12:33:24;10.93;;;9.90;;
68866;SDS011;56451;44.804;20.476;2022-07-29T12:35:57;11.15;;;9.80;;
68866;SDS011;56451;44.804;20.476;2022-07-29T12:38:23;11.20;;;10.20;;
68866;SDS011;56451;44.804;20.476;2022-07-29T12:40:49;10.35;;;9.45;;
68866;SDS011;56451;44.804;20.476;2022-07-29T12:43:18;9.60;;;8.70;;
68866;SDS011;56451;44.804;20.476;2022-07-29T12:45:48;10.90;;;9.82;;
68866;SDS011;56451;44.804;20.476;2022-07-29T12:48:34;10.77;;;9.68;;
68866;SDS011;56451;44.804;20.476;2022-07-29T12:51:05;11.80;;;10.70;;
68866;SDS011;56451;44.804;20.476;2022-07-29T12:53:32;10.95;;;9.90;;
68866;SDS011;56451;44.804;20.476;2022-07-29T12:55:59;11.82;;;10.73;;
68866;SDS011;56451;44.804;20.476;2022-07-29T12:58:32;11.80;;;10.70;;
68866;SDS011;56451;44.804;20.476;2022-07-29T13:01:03;11.82;;;10.73;;
68866;SDS011;56451;44.804;20.476;2022-07-29T13:03:48;11.17;;;10.07;;
68866;SDS011;56451;44.804;20.476;2022-07-29T13:09:12;11.77;;;10.57;;
68866;SDS011;56451;44.804;20.476;2022-07-29T13:11:51;12.23;;;10.30;;
68866;SDS011;56451;44.804;20.476;2022-07-29T13:14:31;11.85;;;10.52;;
68866;SDS011;56451;44.804;20.476;2022-07-29T13:17:07;13.33;;;10.77;;
68866;SDS011;56451;44.804;20.476;2022-07-29T13:22:20;10.60;;;9.60;;
68866;SDS011;56451;44.804;20.476;2022-07-29T13:24:57;11.70;;;10.60;;
68866;SDS011;56451;44.804;20.476;2022-07-29T13:27:27;11.68;;;10.57;;
68866;SDS011;56451;44.804;20.476;2022-07-29T13:29:55;11.73;;;10.63;;
68866;SDS011;56451;44.804;20.476;2022-07-29T13:32:23;12.18;;;10.98;;
68866;SDS011;56451;44.804;20.476;2022-07-29T13:34:51;11.95;;;10.75;;
68866;SDS011;56451;44.804;20.476;2022-07-29T13:37:17;11.30;;;10.20;;
68866;SDS011;56451;44.804;20.476;2022-07-29T13:39:43;12.00;;;10.80;;
68866;SDS011;56451;44.804;20.476;2022-07-29T13:42:09;11.57;;;10.47;;
68866;SDS011;56451;44.804;20.476;2022-07-29T13:44:35;12.07;;;10.85;;
68866;SDS011;56451;44.804;20.476;2022-07-29T13:47:01;12.60;;;11.00;;
68866;SDS011;56451;44.804;20.476;2022-07-29T13:49:27;10.98;;;9.93;;
68866;SDS011;56451;44.804;20.476;2022-07-29T13:51:53;11.40;;;9.77;;
68866;SDS011;56451;44.804;20.476;2022-07-29T13:54:19;13.10;;;10.70;;
68866;SDS011;56451;44.804;20.476;2022-07-29T13:56:45;13.20;;;10.32;;
68866;SDS011;56451;44.804;20.476;2022-07-29T13:59:11;10.37;;;9.47;;
68866;SDS011;56451;44.804;20.476;2022-07-29T14:01:37;11.73;;;10.63;;
68866;SDS011;56451;44.804;20.476;2022-07-29T14:04:04;10.98;;;9.88;;
68866;SDS011;56451;44.804;20.476;2022-07-29T14:06:29;13.23;;;10.10;;
68866;SDS011;56451;44.804;20.476;2022-07-29T14:08:55;12.25;;;10.95;;
68866;SDS011;56451;44.804;20.476;2022-07-29T14:11:21;12.05;;;10.85;;
68866;SDS011;56451;44.804;20.476;2022-07-29T14:13:47;11.90;;;10.70;;
68866;SDS011;56451;44.804;20.476;2022-07-29T14:16:18;11.88;;;10.68;;
68866;SDS011;56451;44.804;20.476;2022-07-29T14:18:44;12.75;;;11.45;;
68866;SDS011;56451;44.804;20.476;2022-07-29T14:21:10;11.45;;;10.35;;
68866;SDS011;56451;44.804;20.476;2022-07-29T14:23:36;12.37;;;11.17;;
68866;SDS011;56451;44.804;20.476;2022-07-29T14:26:02;12.38;;;11.23;;
68866;SDS011;56451;44.804;20.476;2022-07-29T14:28:27;13.20;;;11.50;;
68866;SDS011;56451;44.804;20.476;2022-07-29T14:30:53;12.00;;;10.77;;
68866;SDS011;56451;44.804;20.476;2022-07-29T14:33:19;12.35;;;11.13;;
68866;SDS011;56451;44.804;20.476;2022-07-29T14:35:45;11.80;;;10.70;;
68866;SDS011;56451;44.804;20.476;2022-07-29T14:38:11;12.37;;;11.03;;
68866;SDS011;56451;44.804;20.476;2022-07-29T14:40:36;12.05;;;10.85;;
68866;SDS011;56451;44.804;20.476;2022-07-29T14:43:03;14.98;;;11.38;;
68866;SDS011;56451;44.804;20.476;2022-07-29T14:45:29;12.17;;;10.97;;
68866;SDS011;56451;44.804;20.476;2022-07-29T14:47:55;11.68;;;10.55;;
68866;SDS011;56451;44.804;20.476;2022-07-29T14:50:20;12.15;;;10.82;;
68866;SDS011;56451;44.804;20.476;2022-07-29T14:52:46;11.87;;;10.60;;
68866;SDS011;56451;44.804;20.476;2022-07-29T14:55:12;11.27;;;10.27;;
68866;SDS011;56451;44.804;20.476;2022-07-29T14:57:38;11.90;;;10.90;;
68866;SDS011;56451;44.804;20.476;2022-07-29T15:00:04;11.77;;;10.77;;
68866;SDS011;56451;44.804;20.476;2022-07-29T15:02:33;11.63;;;10.43;;
68866;SDS011;56451;44.804;20.476;2022-07-29T15:04:59;12.13;;;11.00;;
68866;SDS011;56451;44.804;20.476;2022-07-29T15:07:26;13.60;;;11.27;;
68866;SDS011;56451;44.804;20.476;2022-07-29T15:09:53;13.00;;;11.70;;
68866;SDS011;56451;44.804;20.476;2022-07-29T15:12:18;12.43;;;11.32;;
68866;SDS011;56451;44.804;20.476;2022-07-29T15:14:44;13.43;;;12.20;;
68866;SDS011;56451;44.804;20.476;2022-07-29T15:17:10;11.63;;;10.43;;
68866;SDS011;56451;44.804;20.476;2022-07-29T15:19:36;12.15;;;10.95;;
68866;SDS011;56451;44.804;20.476;2022-07-29T15:22:02;12.95;;;11.75;;
68866;SDS011;56451;44.804;20.476;2022-07-29T15:24:30;12.27;;;11.03;;
68866;SDS011;56451;44.804;20.476;2022-07-29T15:26:56;12.15;;;10.85;;